PAUN/UNK METAR and TAF weather

Enter ICAO airport designator
Station Type Date Time Source
PAUN METAR 2020/01/20 21:56 UTC NOAA

PAUN 202156Z AUTO 08013KT 10SM CLR M17/M23 A2952 RMK AO2 SLP002 T11721233 FZRANO


Station Type Date Time Source
PAUN Decoded METAR 2020/01/20 21:56 UTC NOAA

Unalakleet, AK, United States (PAUN) 63-53N 160-48W 6M
Jan 20, 2020 - 04:56 PM EST / 2020.01.20 2156 UTC
Wind: from the E (080 degrees) at 15 MPH (13 KT):0
Visibility: 10 mile(s):0
Sky conditions: clear
Temperature: 1.0 F (-17.2 C)
Windchill: -18 F (-28 C):2
Dew Point: -9.9 F (-23.3 C)
Relative Humidity: 59%
Pressure (altimeter): 29.52 in. Hg (999 hPa)
ob: PAUN 202156Z AUTO 08013KT 10SM CLR M17/M23 A2952 RMK AO2 SLP002 T11721233 FZRANO
cycle: 22

Station Type Date Time Source
PAUN TAF 2020/01/20 18:36 UTC NOAA

TAF PAUN 201733Z 2018/2118 07022KT P6SM SKC
FM202100 08015KT P6SM VCSH BKN035 BKN050 OVC100

Example: see airport list